Terminal Aerodrome Forecast
Issued by NWS Brownsville, TX

Home | Current Version | Previous Version | Text Only | Print | Product List | Glossary On
Versions: 1 2 3 4 5 6 7 8 9 10 11 12 13 14 15 16
000
FTUS44 KBRO 302300
TAFMFE
TAF
KMFE 302330Z 0100/0124 16005KT P6SM SCT040
     FM010200 VRB03KT P6SM SKC
     FM011100 15004KT P6SM BKN010
      TEMPO 0111/0114 2SM BR
     FM011500 14010KT P6SM FEW040=

USA.gov is the U.S. government's official web portal to all federal, state and local government web resources and services.